createdAt,value
2022-11-20T00:04:31.101Z,10.63
2022-11-20T00:09:36.124Z,10.65
2022-11-20T00:14:43.795Z,11.70
2022-11-20T00:19:48.795Z,10.18
2022-11-20T00:24:53.799Z,10.20
2022-11-20T00:30:01.375Z,15.10
2022-11-20T00:35:06.663Z,11.75
2022-11-20T00:40:13.194Z,13.10
2022-11-20T00:45:20.836Z,11.55
2022-11-20T00:50:25.829Z,11.05
2022-11-20T00:55:30.897Z,11.02
2022-11-20T01:00:38.869Z,11.30
2022-11-20T01:05:44.030Z,10.75
2022-11-20T01:10:49.037Z,10.35
2022-11-20T01:15:56.668Z,10.15
2022-11-20T01:21:04.862Z,9.35
2022-11-20T01:26:20.637Z,8.30
2022-11-20T01:31:30.079Z,9.30
2022-11-20T01:36:37.119Z,7.63
2022-11-20T01:41:54.904Z,9.63
2022-11-20T01:47:04.852Z,9.35
2022-11-20T01:52:13.992Z,8.75
2022-11-20T01:57:20.006Z,10.10
2022-11-20T02:02:27.784Z,9.20
2022-11-20T02:07:33.281Z,9.25
2022-11-20T02:12:50.656Z,8.98
2022-11-20T02:17:58.306Z,8.93
2022-11-20T02:23:07.476Z,8.98
2022-11-20T02:28:15.240Z,9.32
2022-11-20T02:33:20.215Z,8.10
2022-11-20T02:38:25.187Z,8.93
2022-11-20T02:43:32.880Z,8.30
2022-11-20T02:48:38.130Z,9.45
2022-11-20T02:53:43.252Z,9.52
2022-11-20T02:58:50.886Z,8.88
2022-11-20T03:03:56.013Z,7.90
2022-11-20T03:09:01.089Z,7.65
2022-11-20T03:14:09.968Z,8.35
2022-11-20T03:19:15.480Z,8.02
2022-11-20T03:24:20.498Z,7.82
2022-11-20T03:29:29.753Z,8.82
2022-11-20T03:34:34.715Z,9.45
2022-11-20T03:39:39.709Z,8.70
2022-11-20T03:44:47.386Z,7.40
2022-11-20T03:49:52.387Z,7.80
2022-11-20T03:54:57.368Z,7.05
2022-11-20T04:00:05.109Z,7.68
2022-11-20T04:05:10.958Z,6.90
2022-11-20T04:10:15.973Z,6.13
2022-11-20T04:15:23.633Z,6.10
2022-11-20T04:20:28.668Z,6.00
2022-11-20T04:25:33.664Z,8.35
2022-11-20T04:30:41.337Z,10.23
2022-11-20T04:35:52.730Z,8.43
2022-11-20T04:41:01.133Z,7.57
2022-11-20T04:46:09.000Z,8.13
2022-11-20T04:51:14.085Z,7.93
2022-11-20T04:56:19.308Z,7.82
2022-11-20T05:01:28.244Z,6.90
2022-11-20T05:06:33.247Z,8.23
2022-11-20T05:11:38.359Z,9.65
2022-11-20T05:16:46.133Z,8.18
2022-11-20T05:21:51.178Z,10.43
2022-11-20T05:26:56.126Z,10.80
2022-11-20T05:32:03.699Z,11.43
2022-11-20T05:37:08.698Z,10.48
2022-11-20T05:42:26.003Z,11.77
2022-11-20T05:47:36.576Z,10.50
2022-11-20T05:52:41.613Z,13.15
2022-11-20T05:57:46.631Z,11.23
2022-11-20T06:02:54.296Z,11.60
2022-11-20T06:07:59.390Z,12.88
2022-11-20T06:13:04.447Z,11.60
2022-11-20T06:18:12.084Z,12.25
2022-11-20T06:23:17.805Z,12.32
2022-11-20T06:28:23.290Z,12.80
2022-11-20T06:33:30.889Z,12.48
2022-11-20T06:38:35.987Z,11.93
2022-11-20T06:43:41.008Z,13.18
2022-11-20T06:48:49.006Z,13.85
2022-11-20T06:53:56.553Z,14.48
2022-11-20T06:59:01.826Z,13.48
2022-11-20T07:04:09.820Z,16.10
2022-11-20T07:09:14.919Z,15.18
2022-11-20T07:14:20.241Z,14.93
2022-11-20T07:19:27.844Z,14.40
2022-11-20T07:24:32.829Z,15.10
2022-11-20T07:29:37.960Z,13.48
2022-11-20T07:34:45.584Z,14.18
2022-11-20T07:39:50.560Z,13.77
2022-11-20T07:44:55.701Z,15.55
2022-11-20T07:50:03.353Z,18.40
2022-11-20T07:55:09.556Z,25.30
2022-11-20T08:00:16.363Z,21.33
2022-11-20T08:05:24.064Z,13.68
2022-11-20T08:10:29.103Z,13.60
2022-11-20T08:15:34.236Z,15.82
2022-11-20T08:20:41.987Z,12.68
2022-11-20T08:25:47.011Z,16.33
2022-11-20T08:30:52.049Z,13.95
2022-11-20T08:36:02.955Z,15.10
2022-11-20T08:41:21.404Z,14.25
2022-11-20T08:46:27.161Z,13.32
2022-11-20T08:51:34.847Z,12.85
2022-11-20T08:56:40.388Z,11.38
2022-11-20T09:01:45.504Z,13.38
2022-11-20T09:06:56.890Z,13.18
2022-11-20T09:12:04.598Z,14.48
2022-11-20T09:17:14.611Z,11.38
2022-11-20T09:22:25.234Z,13.90
2022-11-20T09:27:30.359Z,10.93
2022-11-20T09:32:35.531Z,13.02
2022-11-20T09:37:43.452Z,13.48
2022-11-20T09:42:51.260Z,12.57
2022-11-20T09:48:10.829Z,10.40
2022-11-20T09:53:31.168Z,10.55
2022-11-20T09:58:41.255Z,11.57
2022-11-20T10:03:53.357Z,10.52
2022-11-20T10:09:09.687Z,12.30
2022-11-20T10:14:22.590Z,14.70
2022-11-20T10:19:38.673Z,10.85
2022-11-20T10:24:58.240Z,12.00
2022-11-20T10:30:05.610Z,9.95
2022-11-20T10:35:20.803Z,10.82
2022-11-20T10:40:33.292Z,9.68
2022-11-20T10:45:44.308Z,9.48
2022-11-20T10:50:58.298Z,11.30
2022-11-20T10:56:10.244Z,10.63
2022-11-20T11:01:19.261Z,10.00
2022-11-20T11:06:29.414Z,10.23
2022-11-20T11:11:38.003Z,9.73
2022-11-20T11:16:53.532Z,9.43
2022-11-20T11:21:59.565Z,10.30
2022-11-20T11:27:11.285Z,10.32
2022-11-20T11:32:23.405Z,9.68
2022-11-20T11:37:31.989Z,10.23
2022-11-20T11:42:46.178Z,11.73
2022-11-20T11:47:52.743Z,11.50
2022-11-20T11:53:12.570Z,12.02
2022-11-20T11:58:36.437Z,11.87
2022-11-20T12:03:42.997Z,11.55
2022-11-20T12:08:52.101Z,11.18
2022-11-20T12:14:07.235Z,11.20
2022-11-20T12:19:15.366Z,12.85
2022-11-20T12:24:47.919Z,10.00
2022-11-20T12:30:02.846Z,10.15
2022-11-20T12:35:29.859Z,10.40
2022-11-20T12:40:40.365Z,11.00
2022-11-20T12:45:58.844Z,11.25
2022-11-20T12:51:19.223Z,11.48
2022-11-20T12:56:32.991Z,10.98
2022-11-20T13:01:45.321Z,11.82
2022-11-20T13:06:50.910Z,11.85
2022-11-20T13:12:04.652Z,11.60
2022-11-20T13:17:16.927Z,11.70
2022-11-20T13:22:29.570Z,11.35
2022-11-20T13:27:38.697Z,11.45
2022-11-20T13:32:55.708Z,11.13
2022-11-20T13:38:09.977Z,12.23
2022-11-20T13:43:30.981Z,12.55
2022-11-20T13:48:43.470Z,11.35
2022-11-20T13:54:09.798Z,12.43
2022-11-20T13:59:22.117Z,10.80
2022-11-20T14:04:31.517Z,10.95
2022-11-20T14:09:37.716Z,11.05
2022-11-20T14:14:52.284Z,14.00
2022-11-20T14:20:03.996Z,10.40
2022-11-20T14:25:23.183Z,13.80
2022-11-20T14:30:30.180Z,12.70
2022-11-20T14:35:39.997Z,10.85
2022-11-20T14:40:45.013Z,9.80
2022-11-20T14:45:56.483Z,14.27
2022-11-20T14:51:04.139Z,13.80
2022-11-20T14:56:09.263Z,12.45
2022-11-20T15:01:17.280Z,12.52
2022-11-20T15:06:30.582Z,13.88
2022-11-20T15:11:37.517Z,11.07
2022-11-20T15:16:43.543Z,11.63
2022-11-20T15:21:51.145Z,14.25
2022-11-20T15:26:56.207Z,11.60
2022-11-20T15:32:01.259Z,12.35
2022-11-20T15:37:08.965Z,17.05
2022-11-20T15:42:13.954Z,12.88
2022-11-20T15:47:18.964Z,11.20
2022-11-20T15:52:28.500Z,12.40
2022-11-20T15:57:35.453Z,14.02
2022-11-20T16:02:40.524Z,12.52
2022-11-20T16:07:48.145Z,13.07
2022-11-20T16:13:05.756Z,10.68
2022-11-20T16:18:13.204Z,9.93
2022-11-20T16:23:21.404Z,11.20
2022-11-20T16:28:26.424Z,13.68
2022-11-20T16:33:32.007Z,11.75
2022-11-20T16:38:39.996Z,11.93
2022-11-20T16:43:49.662Z,11.75
2022-11-20T16:48:56.985Z,10.47
2022-11-20T16:54:05.100Z,10.90
2022-11-20T16:59:11.041Z,10.82
2022-11-20T17:04:16.261Z,10.30
2022-11-20T17:09:24.038Z,10.85
2022-11-20T17:14:29.374Z,11.65
2022-11-20T17:19:34.824Z,11.57
2022-11-20T17:24:42.649Z,10.68
2022-11-20T17:29:47.621Z,11.07
2022-11-20T17:34:56.538Z,11.43
2022-11-20T17:40:04.337Z,10.85
2022-11-20T17:45:10.277Z,11.02
2022-11-20T17:50:15.617Z,11.18
2022-11-20T17:55:24.670Z,11.27
2022-11-20T18:00:30.829Z,13.68
2022-11-20T18:05:35.831Z,14.35
2022-11-20T18:10:43.458Z,15.65
2022-11-20T18:15:48.927Z,16.75
2022-11-20T18:20:56.632Z,11.07
2022-11-20T18:26:05.951Z,12.85
2022-11-20T18:31:11.453Z,12.63
2022-11-20T18:36:17.341Z,12.70
2022-11-20T18:41:39.569Z,11.90
2022-11-20T18:46:44.661Z,13.32
2022-11-20T18:51:50.177Z,12.77
2022-11-20T18:56:57.903Z,14.93
2022-11-20T19:02:02.861Z,12.50
2022-11-20T19:07:17.090Z,12.30
2022-11-20T19:12:26.669Z,12.48
2022-11-20T19:17:31.920Z,12.27
2022-11-20T19:22:37.204Z,12.60
2022-11-20T19:27:45.154Z,11.80
2022-11-20T19:32:50.275Z,12.85
2022-11-20T19:37:55.346Z,11.32
2022-11-20T19:43:04.235Z,11.75
2022-11-20T19:48:12.444Z,12.18
2022-11-20T19:53:18.786Z,12.23
2022-11-20T19:58:28.069Z,12.65
2022-11-20T20:03:33.260Z,12.20
2022-11-20T20:08:38.495Z,14.48
2022-11-20T20:13:49.508Z,12.50
2022-11-20T20:18:58.136Z,15.45
2022-11-20T20:24:03.298Z,13.57
2022-11-20T20:29:11.000Z,14.88
2022-11-20T20:34:15.954Z,12.50
2022-11-20T20:39:21.443Z,14.18
2022-11-20T20:44:41.498Z,13.02
2022-11-20T20:49:46.556Z,13.63
2022-11-20T20:54:51.882Z,12.75
2022-11-20T20:59:59.663Z,14.23
2022-11-20T21:05:04.804Z,15.23
2022-11-20T21:10:10.296Z,14.60
2022-11-20T21:15:18.350Z,13.27
2022-11-20T21:20:35.670Z,12.85
2022-11-20T21:25:41.576Z,13.73
2022-11-20T21:30:49.525Z,14.50
2022-11-20T21:35:54.600Z,14.40
2022-11-20T21:41:00.768Z,14.80
2022-11-20T21:46:18.474Z,15.25
2022-11-20T21:51:25.160Z,14.23
2022-11-20T21:56:30.714Z,14.25
2022-11-20T22:01:38.577Z,14.10
2022-11-20T22:06:43.894Z,15.00
2022-11-20T22:11:48.961Z,15.43
2022-11-20T22:16:57.012Z,14.43
2022-11-20T22:22:01.989Z,15.23
2022-11-20T22:27:07.045Z,15.43
2022-11-20T22:32:14.601Z,15.63
2022-11-20T22:37:19.607Z,16.42
2022-11-20T22:42:24.561Z,15.50
2022-11-20T22:47:32.139Z,16.17
2022-11-20T22:52:37.125Z,16.70
2022-11-20T22:57:42.152Z,16.38
2022-11-20T23:02:49.934Z,16.75
2022-11-20T23:07:54.985Z,16.95
2022-11-20T23:12:59.977Z,15.60
2022-11-20T23:18:07.671Z,18.33
2022-11-20T23:23:12.687Z,16.98
2022-11-20T23:28:18.162Z,16.05
2022-11-20T23:33:25.981Z,16.33
2022-11-20T23:38:30.995Z,15.73
2022-11-20T23:43:36.728Z,17.08
2022-11-20T23:48:45.219Z,16.35
2022-11-20T23:53:50.537Z,15.77
2022-11-20T23:58:55.553Z,16.02
